This is the latest recevied weather packets stored in our database for station/object K6QM-1. If no packets are shown the sender has not sent any weather packets the latest 1 day(s).
| Time | Temp. | Humidity | Pressure | Rain* | Wind** | Luminosity | Snow |
|---|---|---|---|---|---|---|---|
| 1777933553 | 22.22° C | 43% | 1017.5 hPa | - | - | - | - |
| 1777932652 | 22.78° C | 42% | 1017.5 hPa | - | - | - | - |
| 1777931752 | 22.22° C | 43% | 1017.9 hPa | - | - | - | - |
| 1777930852 | 22.22° C | 43% | 1018 hPa | - | - | - | - |
| 1777929952 | 22.22° C | 42% | 1017.9 hPa | - | - | - | - |
| 1777929052 | 21.11° C | 42% | 1016.3 hPa | - | - | - | - |
| 1777928151 | 22.22° C | 43% | 1017.9 hPa | - | - | - | - |
| 1777927251 | 22.22° C | 42% | 1018.1 hPa | - | - | - | - |
| 1777926352 | 21.67° C | 43% | 1017.9 hPa | - | - | - | - |
| 1777925451 | 22.22° C | 43% | 1018 hPa | - | - | - | - |
| 1777924551 | 21.11° C | 46% | 1018.2 hPa | - | - | - | - |
| 1777923651 | 21.11° C | 47% | 1018.4 hPa | - | - | - | - |
| 1777922751 | 20.56° C | 47% | 1018.3 hPa | - | - | - | - |
| 1777921851 | 21.11° C | 46% | 1018.4 hPa | - | - | - | - |
| 1777920951 | 20.56° C | 46% | 1018.4 hPa | - | - | - | - |
| 1777920051 | 20° C | 48% | 1018.6 hPa | - | - | - | - |
| 1777919151 | 20.56° C | 47% | 1018.8 hPa | - | - | - | - |
| 1777918250 | 20.56° C | 47% | 1018.6 hPa | - | - | - | - |
| 1777917350 | 20° C | 49% | 1018.6 hPa | - | - | - | - |
| 1777914650 | 18.89° C | 52% | 1018.5 hPa | - | - | - | - |
| 1777913750 | 18.33° C | 53% | 1018.2 hPa | - | - | - | - |
| 1777912850 | 17.78° C | 55% | 1018.2 hPa | - | - | - | - |
| 1777911950 | 17.78° C | 54% | 1018.2 hPa | - | - | - | - |
| 1777911050 | 17.78° C | 55% | 1018.2 hPa | - | - | - | - |
| 1777910150 | 17.22° C | 56% | 1018.4 hPa | - | - | - | - |
* Rain since midnight (hover to see other rain measurements)
** Current wind speed in m/s (hover to see current wind gust speed)